Time;durP1;ratioP1;P1;durP2;ratioP2;P2;SDS_P1;SDS_P2;PMS_P1;PMS_P2;Temp;Humidity;BMP_temperature;BMP_pressure;BME280_temperature;BME280_humidity;BME280_pressure;Samples;Min_cycle;Max_cycle;Signal;HPM_P1;HPM_P2
2023/04/22 00:01:25;;;;;;;7.32;4.78;;;;;;;13.82;86.19;100664.97;5013915;28;20046;-80
2023/04/22 00:03:53;;;;;;;6.35;4.65;;;;;;;13.74;88.53;100671.13;5013634;28;20037;-80
2023/04/22 00:06:21;;;;;;;8.25;4.75;;;;;;;13.71;88.00;100674.50;5004357;28;20484;-80
2023/04/22 00:08:49;;;;;;;6.18;4.57;;;;;;;13.67;88.88;100671.53;5013789;28;20056;-80
2023/04/22 00:11:17;;;;;;;5.30;4.03;;;;;;;13.64;88.38;100665.81;5013491;28;20053;-80
2023/04/22 00:13:45;;;;;;;7.13;4.57;;;;;;;13.65;89.01;100659.19;5013136;28;20045;-80
2023/04/22 00:16:13;;;;;;;6.75;4.50;;;;;;;13.66;88.46;100671.81;5013687;28;20469;-80
2023/04/22 00:18:41;;;;;;;8.90;5.05;;;;;;;13.63;89.55;100672.44;5013237;28;20038;-80
2023/04/22 00:21:09;;;;;;;5.03;4.50;;;;;;;13.63;88.88;100667.72;5013746;28;20046;-80
2023/04/22 00:23:37;;;;;;;5.88;4.43;;;;;;;13.65;89.76;100665.50;5013584;28;20065;-80
2023/04/22 00:26:05;;;;;;;9.82;4.85;;;;;;;13.61;88.93;100667.22;4996414;28;20524;-80
2023/04/22 00:28:33;;;;;;;6.53;4.68;;;;;;;13.65;89.17;100667.44;5013589;28;20054;-80
2023/04/22 00:31:02;;;;;;;7.03;5.28;;;;;;;13.60;89.20;100660.09;4996217;28;20481;-80
2023/04/22 00:33:30;;;;;;;6.80;4.90;;;;;;;13.56;91.22;100656.31;5013612;28;20050;-81
2023/04/22 00:35:58;;;;;;;9.13;4.70;;;;;;;13.55;89.68;100660.16;4995981;28;20065;-80
2023/04/22 00:38:26;;;;;;;9.27;5.40;;;;;;;13.53;89.97;100659.63;5013350;28;20076;-80
2023/04/22 00:40:54;;;;;;;9.18;5.38;;;;;;;13.53;89.77;100665.13;4996035;28;20049;-80
2023/04/22 00:43:22;;;;;;;8.23;5.45;;;;;;;13.37;91.03;100659.84;5013304;28;20045;-81
2023/04/22 00:45:50;;;;;;;9.63;4.82;;;;;;;13.38;91.96;100671.63;5013000;28;20045;-80
2023/04/22 00:48:19;;;;;;;8.15;5.30;;;;;;;13.32;91.74;100654.41;5013198;28;20053;-80
2023/04/22 00:50:50;;;;;;;8.75;5.65;;;;;;;13.37;91.67;100665.34;5013178;28;20049;-81
2023/04/22 00:53:18;;;;;;;7.70;5.35;;;;;;;13.35;91.28;100667.56;5013140;28;20049;-81
2023/04/22 00:55:45;;;;;;;10.23;5.78;;;;;;;13.38;91.49;100677.13;5012147;28;20042;-81
2023/04/22 00:58:13;;;;;;;10.40;5.70;;;;;;;13.42;91.15;100679.00;5013020;28;20365;-81
2023/04/22 01:00:42;;;;;;;7.32;4.95;;;;;;;13.40;91.43;100672.97;4995610;28;20046;-81
2023/04/22 01:03:11;;;;;;;9.35;5.13;;;;;;;13.38;91.11;100669.72;5012830;28;20568;-80
2023/04/22 01:05:40;;;;;;;7.13;5.03;;;;;;;13.40;91.21;100674.94;5012636;28;20424;-81
2023/04/22 01:08:08;;;;;;;6.90;5.05;;;;;;;13.38;90.63;100669.72;5012333;28;20045;-81
2023/04/22 01:10:36;;;;;;;8.80;4.85;;;;;;;13.41;90.35;100676.56;5012332;28;20057;-81
2023/04/22 01:13:04;;;;;;;9.30;5.10;;;;;;;13.46;90.77;100682.03;5012389;28;20042;-81
2023/04/22 01:15:32;;;;;;;7.60;5.40;;;;;;;13.41;91.51;100677.34;5012560;28;20049;-80
2023/04/22 01:18:01;;;;;;;7.03;5.07;;;;;;;13.33;91.14;100678.03;5012475;28;20045;-80
2023/04/22 01:20:29;;;;;;;6.93;4.97;;;;;;;13.35;92.12;100684.03;5012187;28;20046;-81
2023/04/22 01:23:00;;;;;;;7.75;4.95;;;;;;;13.24;90.98;100677.06;4994733;28;20045;-81
2023/04/22 01:25:28;;;;;;;6.22;4.20;;;;;;;13.29;90.96;100676.97;5012270;28;20050;-81
2023/04/22 01:27:57;;;;;;;6.78;5.10;;;;;;;13.34;91.36;100676.91;4993975;28;20061;-80
2023/04/22 01:30:25;;;;;;;8.45;4.90;;;;;;;13.56;89.81;100679.13;4994813;28;20049;-80
2023/04/22 01:32:53;;;;;;;7.32;4.82;;;;;;;13.50;90.11;100679.50;5011124;28;20484;-80
2023/04/22 01:35:21;;;;;;;11.27;5.53;;;;;;;13.42;90.69;100678.19;4994654;28;20507;-80
2023/04/22 01:37:50;;;;;;;8.25;5.05;;;;;;;13.44;90.17;100679.53;5010984;28;20049;-81
2023/04/22 01:40:21;;;;;;;8.20;5.32;;;;;;;13.31;89.91;100666.53;5012034;28;20068;-81
2023/04/22 01:42:49;;;;;;;6.93;5.22;;;;;;;13.43;90.12;100677.91;5012312;28;20046;-80
2023/04/22 01:45:17;;;;;;;7.28;5.03;;;;;;;13.44;89.68;100674.03;4994516;28;20049;-80
2023/04/22 01:47:45;;;;;;;5.97;4.68;;;;;;;13.41;90.31;100663.63;5012064;28;20046;-80
2023/04/22 01:50:13;;;;;;;9.18;5.78;;;;;;;13.45;90.30;100674.84;5011855;28;20424;-80
2023/04/22 01:52:41;;;;;;;9.57;5.25;;;;;;;13.40;89.33;100674.94;5011994;28;20416;-80
2023/04/22 01:55:09;;;;;;;5.97;4.13;;;;;;;13.48;89.03;100681.72;5011806;28;20800;-80
2023/04/22 01:57:37;;;;;;;5.97;4.32;;;;;;;13.46;88.89;100665.53;4993201;28;20084;-80
2023/04/22 02:00:07;;;;;;;8.10;5.30;;;;;;;13.50;90.14;100674.00;5011777;28;20397;-80
2023/04/22 02:02:47;;;;;;;8.75;4.88;;;;;;;13.58;89.33;100670.56;4994379;28;20618;-80
2023/04/22 02:05:17;;;;;;;7.63;5.07;;;;;;;13.72;89.52;100669.81;5011441;28;20053;-80
2023/04/22 02:07:46;;;;;;;11.20;5.05;;;;;;;13.66;88.90;100663.56;5011902;28;20049;-80
2023/04/22 02:10:16;;;;;;;6.40;4.50;;;;;;;13.56;90.24;100656.31;4994255;28;20397;-80
2023/04/22 02:12:44;;;;;;;6.63;5.20;;;;;;;13.46;91.92;100661.91;5011590;28;20049;-80
2023/04/22 02:15:14;;;;;;;7.40;5.03;;;;;;;13.51;90.48;100675.63;5011457;28;20512;-80
2023/04/22 02:17:42;;;;;;;6.65;5.35;;;;;;;13.48;90.62;100674.28;5011613;28;20050;-80
2023/04/22 02:20:12;;;;;;;7.15;5.10;;;;;;;13.41;90.76;100676.56;5011838;28;20405;-80
2023/04/22 02:22:42;;;;;;;9.07;5.63;;;;;;;13.39;91.48;100676.84;4998256;28;20041;-80
2023/04/22 02:25:11;;;;;;;11.20;5.53;;;;;;;13.38;91.84;100677.13;4998330;28;20100;-80
2023/04/22 02:27:39;;;;;;;7.65;5.55;;;;;;;13.38;91.28;100671.63;4998291;28;20053;-80
2023/04/22 02:30:07;;;;;;;9.13;5.38;;;;;;;13.37;91.60;100668.09;4998149;28;20050;-80
2023/04/22 02:32:37;;;;;;;11.98;6.30;;;;;;;13.30;91.47;100675.91;5015663;28;20814;-80
2023/04/22 02:35:06;;;;;;;8.27;5.88;;;;;;;13.20;92.02;100671.31;5015757;28;20046;-80
2023/04/22 02:37:34;;;;;;;8.80;5.90;;;;;;;13.14;92.06;100662.34;4998114;28;20046;-80
2023/04/22 02:40:02;;;;;;;10.48;6.43;;;;;;;13.11;91.64;100651.94;5015573;28;20058;-80
2023/04/22 02:42:31;;;;;;;9.80;5.30;;;;;;;13.16;92.09;100665.59;4997310;28;20050;-80
2023/04/22 02:44:59;;;;;;;8.90;5.72;;;;;;;13.21;92.17;100656.50;4997902;28;20395;-80
2023/04/22 02:47:27;;;;;;;8.65;5.72;;;;;;;13.19;92.13;100666.16;4997914;28;20050;-80
2023/04/22 02:49:55;;;;;;;7.55;5.82;;;;;;;13.18;92.55;100657.06;4997814;28;20046;-80
2023/04/22 02:52:23;;;;;;;9.57;5.10;;;;;;;13.11;92.68;100651.94;5015447;28;20417;-80
2023/04/22 02:54:51;;;;;;;8.45;4.93;;;;;;;13.07;93.42;100650.91;4997283;28;20433;-80
2023/04/22 02:57:19;;;;;;;9.00;5.40;;;;;;;13.10;93.56;100661.28;4997581;28;20397;-80
2023/04/22 02:59:47;;;;;;;8.23;5.00;;;;;;;13.04;94.83;100654.22;5015302;28;20408;-80
2023/04/22 03:02:18;;;;;;;7.60;4.82;;;;;;;13.03;94.44;100652.59;4995953;28;20061;-80
2023/04/22 03:05:18;;;;;;;9.10;5.95;;;;;;;13.10;94.61;100650.31;4998441;28;20496;-80
2023/04/22 03:07:46;;;;;;;7.68;5.25;;;;;;;13.03;94.67;100660.84;4997428;28;20046;-80
2023/04/22 03:10:16;;;;;;;8.75;5.60;;;;;;;12.98;94.27;100650.75;4997346;28;20507;-80
2023/04/22 03:12:44;;;;;;;12.13;6.28;;;;;;;12.93;94.99;100659.06;4988908;28;20512;-80
2023/04/22 03:15:12;;;;;;;9.52;5.68;;;;;;;13.04;94.28;100659.72;4977855;28;20400;-80
2023/04/22 03:17:40;;;;;;;6.95;5.50;;;;;;;12.90;95.13;100652.22;4994032;28;20050;-80
2023/04/22 03:20:12;;;;;;;10.95;6.22;;;;;;;12.87;94.82;100652.00;4977802;28;20416;-80
2023/04/22 03:22:41;;;;;;;7.03;5.60;;;;;;;12.82;94.72;100647.38;4977643;28;20053;-80
2023/04/22 03:25:11;;;;;;;8.32;5.63;;;;;;;12.85;94.61;100646.78;4977915;28;20049;-80
2023/04/22 03:27:40;;;;;;;10.55;5.70;;;;;;;12.88;95.71;100661.84;4977701;28;20046;-80
2023/04/22 03:30:08;;;;;;;7.50;5.80;;;;;;;12.85;94.86;100644.03;4995076;28;20485;-80
2023/04/22 03:32:36;;;;;;;7.93;5.75;;;;;;;12.92;95.17;100648.34;4977321;28;20047;-80
2023/04/22 03:35:16;;;;;;;9.45;5.88;;;;;;;12.90;95.01;100652.22;4977702;28;20049;-80
2023/04/22 03:37:47;;;;;;;7.90;6.07;;;;;;;12.88;94.45;100643.47;4962012;28;20050;-80
2023/04/22 03:40:19;;;;;;;8.85;5.53;;;;;;;12.82;94.99;100643.81;4977123;28;20054;-80
2023/04/22 03:42:48;;;;;;;9.07;5.75;;;;;;;12.92;94.45;100659.34;4960667;28;20053;-80
2023/04/22 03:45:19;;;;;;;9.23;6.07;;;;;;;12.77;94.82;100637.25;4977361;28;20049;-80
2023/04/22 03:47:55;;;;;;;7.85;5.18;;;;;;;12.75;95.20;100644.97;4977522;28;20049;-79
2023/04/22 03:50:33;;;;;;;7.20;5.63;;;;;;;12.81;95.61;100642.19;4977358;28;20049;-79
2023/04/22 03:53:01;;;;;;;9.35;5.65;;;;;;;12.78;95.88;100654.56;4977371;28;20401;-80
2023/04/22 03:55:29;;;;;;;8.27;6.07;;;;;;;12.77;95.36;100652.94;4977108;28;20035;-79
2023/04/22 03:57:57;;;;;;;7.03;5.65;;;;;;;12.76;95.74;100654.06;4977152;28;20046;-79
2023/04/22 04:00:25;;;;;;;9.50;6.15;;;;;;;12.79;95.87;100644.38;4977135;28;20043;-81
2023/04/22 04:03:05;;;;;;;8.50;5.95;;;;;;;12.69;96.96;100642.59;4977243;28;20057;-80
2023/04/22 04:05:34;;;;;;;10.52;6.75;;;;;;;12.81;95.84;100648.47;4977125;28;20046;-81
2023/04/22 04:08:03;;;;;;;9.02;5.50;;;;;;;12.75;95.83;100650.47;4977211;28;20504;-81
2023/04/22 04:10:32;;;;;;;11.15;6.65;;;;;;;12.70;96.03;100655.22;4976872;28;20038;-80
2023/04/22 04:13:00;;;;;;;9.88;6.15;;;;;;;12.71;96.22;100665.09;4987425;28;20042;-80
2023/04/22 04:15:35;;;;;;;8.57;6.15;;;;;;;12.72;96.04;100655.75;5012628;28;20426;-81
2023/04/22 04:18:04;;;;;;;11.50;6.78;;;;;;;12.72;96.35;100656.53;4996219;28;20042;-80
2023/04/22 04:20:33;;;;;;;8.23;6.45;;;;;;;12.70;97.17;100644.25;4996165;28;20430;-80
2023/04/22 04:23:01;;;;;;;12.18;6.68;;;;;;;12.70;96.82;100653.28;4996018;28;20045;-81
2023/04/22 04:25:37;;;;;;;14.35;7.10;;;;;;;12.69;96.90;100646.16;4996231;28;20037;-80
2023/04/22 04:28:10;;;;;;;11.23;7.50;;;;;;;12.61;97.01;100650.34;4996046;28;20389;-81
2023/04/22 04:30:40;;;;;;;12.07;6.85;;;;;;;12.67;96.62;100647.56;5012255;28;20488;-80
2023/04/22 04:33:08;;;;;;;8.90;6.20;;;;;;;12.71;96.69;100643.13;4995935;28;20413;-81
2023/04/22 04:35:40;;;;;;;11.10;6.82;;;;;;;12.74;96.97;100656.25;4995918;28;20052;-80
2023/04/22 04:38:11;;;;;;;12.00;6.55;;;;;;;12.70;96.92;100652.47;4995793;28;20049;-79
2023/04/22 04:40:42;;;;;;;13.02;7.30;;;;;;;12.73;96.11;100649.97;5011524;28;20053;-79
2023/04/22 04:43:20;;;;;;;10.60;7.03;;;;;;;12.83;99.07;100654.50;4994900;28;20041;-79
2023/04/22 04:45:55;;;;;;;10.02;6.80;;;;;;;12.84;96.11;100653.38;4995363;28;20049;-79
2023/04/22 04:48:34;;;;;;;8.93;6.60;;;;;;;12.84;96.11;100661.63;4995959;28;20493;-79
2023/04/22 04:51:08;;;;;;;8.27;6.22;;;;;;;12.93;96.30;100659.06;4995978;28;20378;-79
2023/04/22 04:53:41;;;;;;;9.35;6.40;;;;;;;12.98;95.48;100664.50;4995161;28;20042;-79
2023/04/22 04:56:09;;;;;;;8.95;6.28;;;;;;;12.95;95.51;100670.56;5013197;28;20045;-79
2023/04/22 04:58:37;;;;;;;9.98;6.43;;;;;;;13.08;94.32;100673.69;4995418;28;20038;-79
2023/04/22 05:01:13;;;;;;;10.77;7.10;;;;;;;13.07;95.13;100661.06;4995205;28;20065;-79
2023/04/22 05:03:43;;;;;;;11.02;6.50;;;;;;;13.29;94.13;100663.25;4979389;28;20501;-81
2023/04/22 05:06:13;;;;;;;10.45;6.80;;;;;;;13.30;93.15;100670.41;4995465;28;20496;-79
2023/04/22 05:08:46;;;;;;;9.77;6.25;;;;;;;13.30;93.01;100670.41;4979785;28;20069;-81
2023/04/22 05:11:14;;;;;;;8.85;6.60;;;;;;;13.46;92.28;100667.41;5012392;28;20053;-80
2023/04/22 05:13:45;;;;;;;14.68;6.35;;;;;;;13.51;91.58;100670.13;4978453;28;20054;-80
2023/04/22 05:16:19;;;;;;;;;;;;;;;13.61;89.76;100672.72;4957051;28;20508;-82
2023/04/22 05:18:47;;;;;;;21.13;6.55;;;;;;;13.73;90.68;100671.44;4956615;28;20372;-93
2023/04/22 05:21:15;;;;;;;9.00;5.97;;;;;;;14.12;88.17;100673.00;4942271;28;20042;-92
2023/04/22 05:23:44;;;;;;;9.70;6.25;;;;;;;14.37;86.18;100681.91;4957752;28;20051;-92
2023/04/22 05:26:14;;;;;;;7.43;5.55;;;;;;;14.45;85.96;100684.00;4942050;28;20046;-92
2023/04/22 05:28:43;;;;;;;8.90;6.10;;;;;;;14.43;85.72;100688.16;4957391;28;20061;-93
2023/04/22 05:31:12;;;;;;;8.93;6.32;;;;;;;14.59;84.98;100691.44;4942223;28;20051;-92
2023/04/22 05:33:40;;;;;;;10.05;6.63;;;;;;;14.72;83.26;100685.13;4941536;28;20414;-92
2023/04/22 05:36:09;;;;;;;7.97;5.55;;;;;;;14.74;83.10;100695.84;4957264;28;20059;-92
2023/04/22 05:38:37;;;;;;;10.88;6.78;;;;;;;14.87;83.17;100694.25;4959760;28;20070;-91
2023/04/22 05:41:05;;;;;;;9.45;6.05;;;;;;;14.87;83.25;100697.00;4961112;28;20046;-91
2023/04/22 05:43:33;;;;;;;11.93;6.45;;;;;;;14.96;83.09;100697.09;4977518;28;20046;-93
2023/04/22 05:46:12;;;;;;;10.45;6.57;;;;;;;14.93;83.04;100704.03;4960647;28;20047;-93
2023/04/22 05:48:42;;;;;;;10.05;6.50;;;;;;;14.93;83.04;100703.22;4957399;28;20045;-92
2023/04/22 05:51:23;;;;;;;11.18;6.90;;;;;;;14.95;82.83;100700.97;4959153;28;20053;-92
2023/04/22 05:53:52;;;;;;;8.98;6.00;;;;;;;15.04;82.44;100697.19;4944567;28;20058;-92
2023/04/22 05:56:20;;;;;;;9.10;6.10;;;;;;;14.89;82.47;100700.25;4960576;28;20054;-92
2023/04/22 05:58:48;;;;;;;9.75;5.97;;;;;;;14.87;82.62;100702.50;4963976;28;20046;-96
2023/04/22 06:01:20;;;;;;;7.28;5.20;;;;;;;14.82;81.76;100711.69;4960952;28;20412;-92
2023/04/22 06:04:08;;;;;;;6.93;5.13;;;;;;;14.84;81.17;100714.13;4960423;28;20429;-95
2023/04/22 06:06:37;;;;;;;9.05;5.97;;;;;;;14.89;80.04;100717.63;4944585;28;20536;-92
2023/04/22 06:09:06;;;;;;;7.15;4.70;;;;;;;14.75;80.54;100703.84;4960173;28;20405;-92
2023/04/22 06:11:34;;;;;;;7.53;5.07;;;;;;;14.86;80.13;100718.22;4959996;28;20042;-91
2023/04/22 06:14:02;;;;;;;6.78;5.13;;;;;;;14.76;79.96;100716.47;4959887;28;20054;-92
2023/04/22 06:16:30;;;;;;;9.52;5.15;;;;;;;14.88;80.69;100720.66;4944146;28;20054;-92
2023/04/22 06:18:59;;;;;;;10.43;5.50;;;;;;;15.08;79.43;100715.84;4944263;28;20050;-92
2023/04/22 06:21:27;;;;;;;7.78;5.25;;;;;;;15.18;79.33;100719.25;4943657;28;20050;-92
2023/04/22 06:23:56;;;;;;;6.82;4.82;;;;;;;15.47;78.40;100727.44;4944328;28;20050;-93
2023/04/22 06:26:25;;;;;;;8.48;4.95;;;;;;;15.59;77.02;100713.94;4976111;28;20505;-93
2023/04/22 06:28:53;;;;;;;8.73;4.85;;;;;;;15.79;76.48;100734.72;4956414;28;20046;-92
2023/04/22 06:31:23;;;;;;;8.40;4.15;;;;;;;15.73;76.93;100738.72;4953354;28;20065;-94
2023/04/22 06:33:51;;;;;;;5.68;4.25;;;;;;;16.00;75.22;100737.03;4946126;28;20047;-92
2023/04/22 06:36:19;;;;;;;7.60;4.53;;;;;;;16.11;75.06;100727.38;4975568;28;20050;-92
2023/04/22 06:38:54;;;;;;;7.30;4.57;;;;;;;16.33;73.67;100744.25;4958331;28;20057;-92
2023/04/22 06:41:35;;;;;;;7.75;5.05;;;;;;;16.48;73.09;100737.50;4938505;28;20058;-92
2023/04/22 06:44:14;;;;;;;6.90;5.32;;;;;;;16.41;71.85;100735.19;4959583;28;20302;-92
2023/04/22 06:47:05;;;;;;;8.30;4.63;;;;;;;16.43;71.45;100741.19;4965110;28;20050;-91
2023/04/22 06:49:46;;;;;;;10.85;5.15;;;;;;;16.58;71.42;100750.25;4958936;28;20051;-93
2023/04/22 06:52:23;;;;;;;7.78;4.95;;;;;;;16.63;71.52;100742.63;4943506;28;20054;-92
2023/04/22 06:54:55;;;;;;;7.63;4.95;;;;;;;16.58;72.32;100734.50;4959610;28;20121;-93
2023/04/22 06:57:24;;;;;;;8.65;5.30;;;;;;;16.71;71.52;100743.00;4943410;28;20050;-92
2023/04/22 06:59:51;;;;;;;9.55;5.28;;;;;;;16.82;70.96;100751.81;4942990;28;20055;-91
2023/04/22 07:02:21;;;;;;;10.32;5.88;;;;;;;16.74;72.33;100745.94;4974821;28;20039;-91
2023/04/22 07:04:49;;;;;;;11.60;5.82;;;;;;;16.78;70.01;100746.91;4959321;28;20047;-91
2023/04/22 07:07:17;;;;;;;8.15;5.47;;;;;;;17.03;69.87;100752.09;4961257;28;20035;-92
2023/04/22 07:09:45;;;;;;;10.93;7.18;;;;;;;16.78;71.89;100749.66;4946989;28;20054;-91
2023/04/22 07:12:13;;;;;;;11.27;6.90;;;;;;;16.93;70.93;100750.41;4947866;28;20386;-91
2023/04/22 07:14:43;;;;;;;11.73;6.78;;;;;;;17.15;71.29;100755.06;4946786;28;20057;-91
2023/04/22 07:17:11;;;;;;;9.77;6.38;;;;;;;17.27;69.16;100748.09;4978990;28;20445;-91
2023/04/22 07:19:39;;;;;;;11.20;6.85;;;;;;;17.37;68.97;100747.81;4962317;28;20053;-90
2023/04/22 07:22:08;;;;;;;8.35;5.93;;;;;;;17.42;68.70;100739.34;4978688;28;20069;-89
2023/04/22 07:24:36;;;;;;;11.45;6.78;;;;;;;17.42;67.85;100735.75;4946642;28;20054;-91
2023/04/22 07:27:04;;;;;;;10.75;7.32;;;;;;;17.35;67.84;100740.97;4962727;28;20053;-91
2023/04/22 07:29:32;;;;;;;11.75;6.57;;;;;;;17.48;67.37;100740.00;4946491;28;20046;-91
2023/04/22 07:32:00;;;;;;;10.13;6.63;;;;;;;17.57;67.43;100740.84;4978601;28;20359;-92
2023/04/22 07:34:28;;;;;;;12.07;7.93;;;;;;;17.60;67.46;100740.19;4946540;28;20505;-91
2023/04/22 07:36:56;;;;;;;13.80;7.95;;;;;;;17.57;68.69;100737.25;4962739;28;20050;-92
2023/04/22 07:39:24;;;;;;;11.68;7.43;;;;;;;17.59;68.66;100726.66;4962377;28;20394;-91
2023/04/22 07:41:52;;;;;;;11.25;6.88;;;;;;;17.65;67.60;100741.97;4946280;28;20070;-91
2023/04/22 07:44:20;;;;;;;10.90;7.00;;;;;;;17.84;66.20;100738.88;4978436;28;20494;-91
2023/04/22 07:46:49;;;;;;;13.00;7.65;;;;;;;17.85;66.58;100734.97;4962304;28;20042;-92
2023/04/22 07:49:17;;;;;;;9.43;6.90;;;;;;;17.82;66.77;100735.63;4946324;28;20050;-91
2023/04/22 07:51:45;;;;;;;10.65;6.82;;;;;;;17.86;66.04;100741.34;4978201;28;20058;-92
2023/04/22 07:54:13;;;;;;;10.70;6.30;;;;;;;18.05;65.67;100737.41;4946462;28;20047;-91
2023/04/22 07:56:41;;;;;;;14.63;7.28;;;;;;;18.22;65.78;100731.88;4978261;28;20053;-92
2023/04/22 07:59:09;;;;;;;15.07;7.70;;;;;;;18.04;68.20;100731.03;4978202;28;20046;-91
2023/04/22 08:01:37;;;;;;;10.25;6.80;;;;;;;18.10;66.66;100729.78;4962122;28;20074;-93
2023/04/22 08:04:06;;;;;;;9.70;6.35;;;;;;;18.36;66.44;100733.63;4962312;28;20061;-91
2023/04/22 08:06:34;;;;;;;11.60;7.35;;;;;;;18.34;65.10;100733.97;4978338;28;20050;-92
2023/04/22 08:09:02;;;;;;;10.43;6.95;;;;;;;18.37;65.52;100729.72;4978811;28;20049;-94
2023/04/22 08:11:31;;;;;;;11.75;5.68;;;;;;;18.51;63.57;100727.56;4962076;28;20410;-92
2023/04/22 08:13:59;;;;;;;10.95;5.85;;;;;;;18.56;62.77;100734.09;4961855;28;20065;-92
2023/04/22 08:16:27;;;;;;;10.48;6.18;;;;;;;18.69;63.50;100735.84;4946108;28;20054;-93
2023/04/22 08:18:56;;;;;;;11.00;6.35;;;;;;;18.86;61.56;100740.50;4961049;28;20050;-94
2023/04/22 08:21:26;;;;;;;8.88;5.97;;;;;;;18.93;60.34;100737.22;4945816;28;20061;-93
2023/04/22 08:23:54;;;;;;;8.10;5.90;;;;;;;18.96;61.75;100733.75;4946067;28;20053;-92
2023/04/22 08:26:22;;;;;;;10.48;6.05;;;;;;;18.93;61.51;100731.66;4946144;28;20429;-93
2023/04/22 08:28:50;;;;;;;8.30;6.10;;;;;;;19.03;61.07;100747.97;4945928;28;20051;-93
2023/04/22 08:31:18;;;;;;;9.10;5.50;;;;;;;19.06;61.93;100733.41;4962024;28;20382;-94
2023/04/22 08:33:47;;;;;;;12.70;5.85;;;;;;;19.10;61.28;100739.09;4946049;28;20426;-92
2023/04/22 08:36:15;;;;;;;7.93;5.60;;;;;;;19.16;62.31;100745.28;4946152;28;20051;-92
2023/04/22 08:38:43;;;;;;;9.18;6.03;;;;;;;19.22;63.14;100743.13;4961826;28;20043;-94
2023/04/22 08:41:12;;;;;;;10.10;6.30;;;;;;;19.20;63.04;100735.13;4961384;28;20058;-91
2023/04/22 08:43:40;;;;;;;10.73;6.72;;;;;;;19.43;62.54;100735.66;4945834;28;20054;-94
2023/04/22 08:46:09;;;;;;;8.65;5.90;;;;;;;19.39;62.48;100737.47;4945670;28;20054;-94
2023/04/22 08:48:37;;;;;;;10.35;7.10;;;;;;;19.26;61.52;100731.00;4945693;28;20043;-94
2023/04/22 08:51:05;;;;;;;11.32;7.28;;;;;;;19.43;63.27;100735.66;4945743;28;20038;-94
2023/04/22 08:53:33;;;;;;;8.77;6.35;;;;;;;19.60;61.22;100734.72;4945939;28;20492;-94
2023/04/22 08:56:01;;;;;;;9.30;6.57;;;;;;;19.54;61.35;100746.34;4961429;28;20054;-94
2023/04/22 08:58:30;;;;;;;6.68;5.18;;;;;;;19.64;59.09;100732.06;4961599;28;20057;-93
2023/04/22 09:00:59;;;;;;;8.23;5.85;;;;;;;19.73;60.37;100737.56;4945459;28;20054;-94
2023/04/22 09:03:27;;;;;;;6.65;5.10;;;;;;;19.76;60.41;100738.84;4945509;28;20054;-94
2023/04/22 09:05:56;;;;;;;9.25;5.32;;;;;;;19.83;59.81;100734.38;4961929;28;20050;-96
2023/04/22 09:08:25;;;;;;;8.30;5.55;;;;;;;19.85;58.95;100725.72;4946107;28;20383;-94
2023/04/22 09:10:53;;;;;;;8.70;5.00;;;;;;;20.02;58.28;100724.75;4945047;28;20046;-92
2023/04/22 09:13:22;;;;;;;8.05;5.43;;;;;;;20.13;57.68;100722.34;4955407;28;20061;-94
2023/04/22 09:15:50;;;;;;;7.43;5.32;;;;;;;20.20;56.78;100713.47;4961213;28;20046;-93
2023/04/22 09:18:19;;;;;;;6.65;5.18;;;;;;;20.27;56.02;100720.09;4960834;28;20066;-93
2023/04/22 09:20:48;;;;;;;7.00;4.60;;;;;;;20.35;52.35;100721.16;4944804;28;20315;-94
2023/04/22 09:23:16;;;;;;;5.20;3.95;;;;;;;20.35;52.45;100723.13;4945116;28;20057;-93
2023/04/22 09:25:45;;;;;;;7.95;4.70;;;;;;;20.57;53.84;100716.31;4944938;28;20057;-93
2023/04/22 09:28:17;;;;;;;7.05;4.43;;;;;;;20.57;52.31;100723.88;4961200;28;20050;-93
2023/04/22 09:30:46;;;;;;;9.15;4.80;;;;;;;20.58;51.26;100720.72;4944620;28;20050;-94
2023/04/22 09:33:14;;;;;;;5.55;4.10;;;;;;;20.67;51.74;100706.72;4944999;28;20501;-93
2023/04/22 09:35:42;;;;;;;6.72;4.95;;;;;;;21.02;52.56;100709.06;4960489;28;20061;-93
2023/04/22 09:38:11;;;;;;;7.00;4.70;;;;;;;21.04;51.24;100706.78;4944901;28;20050;-93
2023/04/22 09:40:43;;;;;;;10.80;5.45;;;;;;;20.99;50.71;100703.41;4944841;28;20046;-93
2023/04/22 09:43:11;;;;;;;7.10;5.00;;;;;;;20.93;51.63;100700.84;4960615;28;20393;-93
2023/04/22 09:45:41;;;;;;;7.22;5.35;;;;;;;20.99;50.75;100700.63;4976849;28;20046;-93
2023/04/22 09:48:14;;;;;;;8.13;5.00;;;;;;;20.88;50.66;100703.88;4944733;28;20050;-92
2023/04/22 09:50:48;;;;;;;8.10;4.25;;;;;;;20.86;51.88;100694.28;4960902;28;20057;-94
2023/04/22 09:53:17;;;;;;;;;;;;;;;20.88;49.97;100703.06;4960921;28;20042;-94
2023/04/22 09:55:47;;;;;;;8.90;4.90;;;;;;;21.02;50.89;100699.94;4960396;28;19930;-94
2023/04/22 09:58:17;;;;;;;9.00;4.97;;;;;;;21.21;49.54;100705.72;4976507;28;20489;-93
2023/04/22 10:00:57;;;;;;;6.95;5.03;;;;;;;21.13;48.86;100687.19;4959892;28;20042;-92
2023/04/22 10:03:28;;;;;;;7.47;4.70;;;;;;;21.07;51.11;100683.00;4960703;28;20054;-94
2023/04/22 10:05:57;;;;;;;8.25;4.47;;;;;;;21.17;50.44;100687.28;4957186;28;20046;-91
2023/04/22 10:08:26;;;;;;;6.80;4.82;;;;;;;21.25;50.12;100696.66;4957254;28;20264;-96
2023/04/22 10:10:54;;;;;;;8.23;5.20;;;;;;;21.17;47.63;100693.66;4959098;28;20665;-93
2023/04/22 10:13:23;;;;;;;7.05;4.70;;;;;;;21.21;49.07;100694.56;4943780;28;20050;-94
2023/04/22 10:15:52;;;;;;;7.57;5.03;;;;;;;21.33;49.05;100695.72;4946718;28;20088;-94
2023/04/22 10:18:24;;;;;;;8.95;5.03;;;;;;;21.52;48.67;100700.66;4929444;28;20065;-94
2023/04/22 10:20:55;;;;;;;7.82;4.25;;;;;;;21.46;48.21;100696.50;4943842;28;20054;-95
2023/04/22 10:23:24;;;;;;;7.47;4.53;;;;;;;21.47;49.04;100696.13;4956468;28;20039;-94
2023/04/22 10:25:54;;;;;;;7.95;4.65;;;;;;;21.47;49.70;100695.34;4972380;28;20513;-92
2023/04/22 10:28:26;;;;;;;6.32;4.88;;;;;;;21.35;48.33;100685.84;4957288;28;20051;-92
2023/04/22 10:30:54;;;;;;;6.97;4.40;;;;;;;21.45;46.95;100687.34;4941323;28;20445;-93
2023/04/22 10:33:30;;;;;;;7.00;4.03;;;;;;;21.61;48.29;100681.03;4924991;28;20167;-93
2023/04/22 10:36:09;;;;;;;6.85;4.65;;;;;;;21.48;48.06;100675.50;4926635;28;20051;-91
2023/04/22 10:38:39;;;;;;;8.90;4.85;;;;;;;21.55;47.39;100674.88;4943110;28;20050;-94
2023/04/22 10:41:14;;;;;;;7.07;4.90;;;;;;;21.64;47.44;100666.38;4953590;28;20046;-94
2023/04/22 10:43:47;;;;;;;7.30;4.70;;;;;;;21.67;47.55;100673.22;4964718;28;20421;-94
2023/04/22 10:46:33;;;;;;;8.18;4.30;;;;;;;21.88;47.66;100670.25;4966108;28;20058;-92
2023/04/22 10:49:10;;;;;;;5.75;4.72;;;;;;;21.87;47.41;100663.06;4967441;28;20058;-95
2023/04/22 10:51:39;;;;;;;8.02;4.63;;;;;;;21.87;47.66;100668.66;4950170;28;20053;-94
2023/04/22 10:54:27;;;;;;;8.00;5.53;;;;;;;21.68;47.75;100667.31;4949253;28;20401;-95
2023/04/22 10:57:21;;;;;;;6.45;4.53;;;;;;;22.00;48.73;100656.28;4949532;28;20053;-93
2023/04/22 10:59:54;;;;;;;6.80;3.90;;;;;;;22.20;46.64;100664.78;4948251;28;20054;-94
2023/04/22 11:02:23;;;;;;;5.22;3.78;;;;;;;22.09;44.27;100655.31;4954738;28;20058;-91
2023/04/22 11:05:22;;;;;;;5.60;3.65;;;;;;;22.37;43.75;100663.59;4962705;28;20518;-93
2023/04/22 11:07:54;;;;;;;4.85;3.47;;;;;;;22.15;44.03;100651.09;4968078;28;20046;-91
2023/04/22 11:10:46;;;;;;;5.70;3.33;;;;;;;22.46;47.92;100659.81;4962757;28;20046;-92
2023/04/22 11:13:16;;;;;;;5.22;4.00;;;;;;;22.54;46.03;100656.88;4961566;28;20046;-92
2023/04/22 11:15:47;;;;;;;6.75;4.60;;;;;;;22.42;46.17;100656.94;4952615;28;20505;-96
2023/04/22 11:18:28;;;;;;;7.13;5.18;;;;;;;22.21;45.89;100655.22;4961940;28;20050;-95
2023/04/22 11:21:08;;;;;;;9.57;5.07;;;;;;;22.45;44.98;100652.63;4968436;28;20050;-93
2023/04/22 11:23:36;;;;;;;6.88;4.68;;;;;;;22.64;43.84;100649.94;4959929;28;20058;-93
2023/04/22 11:26:06;;;;;;;6.82;4.60;;;;;;;22.68;44.13;100650.06;4962592;28;20045;-95
2023/04/22 11:28:45;;;;;;;5.28;4.15;;;;;;;22.67;45.02;100632.50;4958650;28;20058;-96
2023/04/22 11:31:14;;;;;;;6.03;4.53;;;;;;;22.63;43.74;100636.38;4947558;28;20062;-94
2023/04/22 11:33:42;;;;;;;5.13;3.92;;;;;;;22.86;44.41;100642.09;4948035;28;20055;-94
2023/04/22 11:36:12;;;;;;;4.32;3.28;;;;;;;23.08;45.67;100642.59;4947462;28;20497;-95
2023/04/22 11:38:40;;;;;;;6.47;4.70;;;;;;;23.20;43.58;100645.25;4948077;28;20049;-93